Time;durP1;ratioP1;P1;durP2;ratioP2;P2;SDS_P1;SDS_P2;PMS_P1;PMS_P2;Temp;Humidity;BMP_temperature;BMP_pressure;BME280_temperature;BME280_humidity;BME280_pressure;Samples;Min_cycle;Max_cycle;Signal;HPM_P1;HPM_P2
2022/04/06 00:01:48;;;;;;;38.85;16.90;;;10.30;99.90;;;;;;5074161;28;20055;-82
2022/04/06 00:04:14;;;;;;;32.83;16.10;;;10.30;99.90;;;;;;5056349;28;20028;-81
2022/04/06 00:06:40;;;;;;;39.20;16.27;;;10.30;99.90;;;;;;5074608;28;20021;-82
2022/04/06 00:09:06;;;;;;;32.83;16.37;;;10.30;99.90;;;;;;5074091;28;20119;-79
2022/04/06 00:11:32;;;;;;;27.13;15.10;;;10.30;99.90;;;;;;5074016;28;20029;-79
2022/04/06 00:13:58;;;;;;;37.33;16.20;;;10.30;99.90;;;;;;5073992;28;20020;-79
2022/04/06 00:16:24;;;;;;;37.75;15.82;;;10.30;99.90;;;;;;5039427;28;20423;-80
2022/04/06 00:18:51;;;;;;;32.47;15.30;;;10.20;99.90;;;;;;5055750;28;20036;-84
2022/04/06 00:21:17;;;;;;;30.87;14.97;;;10.30;99.90;;;;;;5055869;28;20016;-85
2022/04/06 00:23:43;;;;;;;29.57;14.63;;;10.30;99.90;;;;;;5055891;28;20047;-79
2022/04/06 00:26:09;;;;;;;29.00;13.20;;;10.30;99.90;;;;;;5073679;28;20024;-82
2022/04/06 00:28:34;;;;;;;35.88;13.95;;;10.30;99.90;;;;;;5056246;28;20024;-81
2022/04/06 00:31:00;;;;;;;31.27;13.90;;;10.30;99.90;;;;;;5056203;28;20124;-82
2022/04/06 00:33:26;;;;;;;32.10;13.03;;;10.40;99.90;;;;;;5050247;28;20033;-78
2022/04/06 00:35:52;;;;;;;28.13;13.23;;;10.30;99.90;;;;;;5072455;28;20033;-80
2022/04/06 00:38:17;;;;;;;30.53;13.43;;;10.30;99.90;;;;;;5072235;28;20029;-79
2022/04/06 00:40:43;;;;;;;28.50;14.43;;;10.40;99.90;;;;;;5072470;28;20542;-85
2022/04/06 00:43:14;;;;;;;34.13;13.77;;;10.30;99.90;;;;;;5055442;28;20032;-82
2022/04/06 00:45:40;;;;;;;33.50;13.43;;;10.30;99.90;;;;;;5073647;28;20103;-81
2022/04/06 00:48:07;;;;;;;26.77;14.40;;;10.30;99.90;;;;;;5071954;28;20033;-82
2022/04/06 00:50:33;;;;;;;30.97;13.50;;;10.30;99.90;;;;;;5073451;28;20028;-77
2022/04/06 00:52:59;;;;;;;28.27;12.98;;;10.30;99.90;;;;;;5055577;28;20055;-78
2022/04/06 00:55:34;;;;;;;35.93;14.57;;;10.30;99.90;;;;;;5055640;28;20025;-80
2022/04/06 00:58:00;;;;;;;27.77;12.95;;;10.30;99.90;;;;;;5073202;28;20040;-79
2022/04/06 01:00:27;;;;;;;27.42;14.25;;;10.30;99.90;;;;;;5055851;28;20045;-79
2022/04/06 01:02:54;;;;;;;27.17;13.63;;;10.20;99.90;;;;;;5055281;28;20464;-82
2022/04/06 01:05:20;;;;;;;29.10;14.73;;;10.30;99.90;;;;;;5055626;28;20385;-80
2022/04/06 01:07:50;;;;;;;31.10;15.57;;;10.30;99.90;;;;;;5055355;28;20154;-83
2022/04/06 01:10:17;;;;;;;32.43;15.37;;;10.30;99.90;;;;;;5055311;28;20036;-80
2022/04/06 01:12:46;;;;;;;35.33;15.67;;;10.30;99.90;;;;;;5055357;28;20060;-82
2022/04/06 01:15:12;;;;;;;34.27;14.63;;;10.20;99.90;;;;;;5072273;28;20396;-80
2022/04/06 01:17:37;;;;;;;33.03;14.87;;;10.20;99.90;;;;;;5055110;28;20033;-79
2022/04/06 01:20:07;;;;;;;35.10;14.82;;;10.30;99.90;;;;;;5055187;28;20036;-80
2022/04/06 01:22:34;;;;;;;36.80;15.10;;;10.20;99.90;;;;;;5055290;28;20021;-81
2022/04/06 01:25:00;;;;;;;28.50;12.97;;;10.30;99.90;;;;;;5072056;28;20025;-79
2022/04/06 01:27:27;;;;;;;34.10;14.67;;;10.30;99.90;;;;;;5073262;28;20037;-83
2022/04/06 01:29:54;;;;;;;25.73;13.23;;;10.20;99.90;;;;;;5055095;28;20683;-82
2022/04/06 01:32:25;;;;;;;29.10;12.57;;;10.30;99.90;;;;;;5072184;28;20461;-84
2022/04/06 01:34:54;;;;;;;33.40;13.20;;;10.20;99.90;;;;;;5055289;28;20102;-81
2022/04/06 01:37:20;;;;;;;30.47;12.73;;;10.30;99.90;;;;;;5072892;28;20039;-80
2022/04/06 01:39:47;;;;;;;28.10;13.07;;;10.20;99.90;;;;;;5054978;28;20499;-89
2022/04/06 01:42:16;;;;;;;24.47;11.87;;;10.30;99.90;;;;;;5074591;28;20035;-82
2022/04/06 01:44:44;;;;;;;29.13;11.82;;;10.30;99.90;;;;;;5090685;28;20027;-79
2022/04/06 01:47:10;;;;;;;28.60;13.00;;;10.20;99.90;;;;;;5085932;28;20071;-85
2022/04/06 01:52:20;;;;;;;28.47;13.27;;;10.30;99.90;;;;;;5073641;28;20594;-82
2022/04/06 01:55:00;;;;;;;24.87;10.83;;;10.20;99.90;;;;;;5038296;28;20032;-81
2022/04/06 01:57:26;;;;;;;26.40;10.63;;;10.20;99.90;;;;;;5072484;28;20049;-79
2022/04/06 01:59:52;;;;;;;30.27;10.60;;;10.20;99.90;;;;;;5055183;28;20031;-82
2022/04/06 02:02:19;;;;;;;25.90;10.10;;;10.10;99.90;;;;;;5058718;28;20538;-79
2022/04/06 02:04:45;;;;;;;28.42;10.55;;;10.20;99.90;;;;;;5058994;28;20465;-81
2022/04/06 02:07:11;;;;;;;26.83;10.30;;;10.20;99.90;;;;;;5058924;28;20064;-81
2022/04/06 02:09:38;;;;;;;23.50;9.70;;;10.20;99.90;;;;;;5058398;28;20115;-80
2022/04/06 02:12:06;;;;;;;22.90;9.50;;;10.10;99.90;;;;;;5076287;28;20017;-79
2022/04/06 02:14:32;;;;;;;25.60;9.70;;;10.20;99.90;;;;;;5076269;28;20115;-82
2022/04/06 02:16:58;;;;;;;28.87;10.30;;;10.20;99.90;;;;;;5076036;28;20032;-81
2022/04/06 02:19:24;;;;;;;22.60;8.57;;;10.20;99.90;;;;;;5058902;28;20020;-79
2022/04/06 02:21:49;;;;;;;21.37;8.63;;;10.10;99.90;;;;;;5058127;28;20028;-82
2022/04/06 02:24:15;;;;;;;25.70;9.53;;;10.20;99.90;;;;;;5058118;28;20579;-82
2022/04/06 02:26:41;;;;;;;24.57;8.70;;;10.10;99.90;;;;;;5074810;28;20020;-79
2022/04/06 02:29:06;;;;;;;23.10;8.73;;;10.20;99.90;;;;;;5076048;28;20354;-79
2022/04/06 02:31:32;;;;;;;23.10;9.10;;;10.20;99.90;;;;;;5055231;28;20021;-82
2022/04/06 02:33:58;;;;;;;25.93;8.83;;;10.20;99.90;;;;;;5075106;28;20033;-80
2022/04/06 02:36:24;;;;;;;21.10;8.53;;;10.10;99.90;;;;;;5075708;28;20040;-77
2022/04/06 02:38:49;;;;;;;19.73;7.63;;;10.10;99.90;;;;;;5074453;28;20033;-75
2022/04/06 02:41:15;;;;;;;21.47;8.83;;;10.10;99.90;;;;;;5057584;28;20354;-77
2022/04/06 02:43:41;;;;;;;17.87;7.77;;;10.10;99.90;;;;;;5075865;28;20013;-76
2022/04/06 02:46:07;;;;;;;16.87;6.70;;;10.10;99.90;;;;;;5057686;28;20020;-77
2022/04/06 02:48:33;;;;;;;19.60;7.40;;;10.10;99.90;;;;;;5057777;28;20028;-77
2022/04/06 02:50:59;;;;;;;16.97;8.23;;;10.10;99.90;;;;;;5057598;28;20020;-76
2022/04/06 02:53:24;;;;;;;25.27;8.17;;;10.20;99.90;;;;;;5058249;28;20020;-75
2022/04/06 02:55:50;;;;;;;18.10;6.73;;;10.10;99.90;;;;;;5057612;28;20033;-76
2022/04/06 02:58:16;;;;;;;21.17;8.63;;;10.20;99.90;;;;;;5057214;28;20603;-79
2022/04/06 03:00:42;;;;;;;20.17;7.83;;;10.10;99.90;;;;;;5057735;28;20021;-76
2022/04/06 03:03:08;;;;;;;22.30;7.37;;;10.00;99.90;;;;;;5057396;28;20028;-76
2022/04/06 03:05:34;;;;;;;16.30;6.57;;;10.00;99.90;;;;;;5057313;28;20031;-78
2022/04/06 03:07:59;;;;;;;17.40;7.00;;;10.00;99.90;;;;;;5057330;28;20029;-76
2022/04/06 03:10:25;;;;;;;18.27;6.60;;;10.00;99.90;;;;;;5075156;28;20500;-77
2022/04/06 03:12:51;;;;;;;20.50;7.13;;;10.00;99.90;;;;;;5057187;28;20031;-79
2022/04/06 03:15:17;;;;;;;23.97;6.93;;;10.00;99.90;;;;;;5075789;28;20035;-82
2022/04/06 03:17:43;;;;;;;16.83;6.60;;;10.00;99.90;;;;;;5073963;28;20028;-81
2022/04/06 03:20:11;;;;;;;22.67;5.80;;;10.00;99.90;;;;;;5040162;28;20119;-83
2022/04/06 03:22:37;;;;;;;19.53;5.67;;;10.00;99.90;;;;;;5068498;28;20030;-78
2022/04/06 03:25:03;;;;;;;18.57;6.17;;;10.00;99.90;;;;;;5056976;28;20025;-81
2022/04/06 03:27:29;;;;;;;19.97;5.50;;;10.00;99.90;;;;;;5090887;28;20128;-87
2022/04/06 03:29:55;;;;;;;12.47;4.93;;;10.00;99.90;;;;;;5073692;28;20480;-81
2022/04/06 03:32:20;;;;;;;13.13;4.47;;;9.90;99.90;;;;;;5073530;28;20028;-79
2022/04/06 03:34:46;;;;;;;15.87;4.33;;;10.00;99.90;;;;;;5073597;28;20036;-80
2022/04/06 03:37:12;;;;;;;15.53;4.90;;;10.00;99.90;;;;;;5074633;28;20369;-79
2022/04/06 03:39:37;;;;;;;17.05;4.28;;;9.90;99.90;;;;;;5057011;28;20024;-81
2022/04/06 03:42:04;;;;;;;13.93;4.20;;;9.90;99.90;;;;;;5056992;28;20029;-82
2022/04/06 03:44:29;;;;;;;13.57;4.03;;;9.90;99.90;;;;;;5073246;28;20036;-82
2022/04/06 03:46:56;;;;;;;16.33;4.37;;;9.90;99.90;;;;;;5056818;28;20036;-88
2022/04/06 03:49:22;;;;;;;19.33;3.77;;;9.90;99.90;;;;;;5074700;28;20028;-80
2022/04/06 03:51:48;;;;;;;16.67;4.17;;;9.80;99.90;;;;;;5073319;28;20051;-79
2022/04/06 03:54:13;;;;;;;13.17;3.70;;;9.90;99.90;;;;;;5056966;28;20033;-82
2022/04/06 03:56:39;;;;;;;14.03;5.17;;;9.80;99.90;;;;;;5072929;28;20021;-81
2022/04/06 03:59:05;;;;;;;11.97;3.30;;;9.80;99.90;;;;;;5073233;28;20021;-81
2022/04/06 04:01:31;;;;;;;10.77;2.87;;;9.80;99.90;;;;;;5056730;28;20075;-80
2022/04/06 04:03:57;;;;;;;15.57;3.33;;;9.70;99.90;;;;;;5074411;28;20025;-76
2022/04/06 04:06:23;;;;;;;13.47;3.33;;;9.70;99.90;;;;;;5056182;28;20131;-77
2022/04/06 04:08:48;;;;;;;14.97;3.30;;;9.70;99.90;;;;;;5072760;28;20078;-77
2022/04/06 04:11:14;;;;;;;10.73;3.13;;;9.70;99.90;;;;;;5056215;28;20469;-77
2022/04/06 04:13:40;;;;;;;11.30;2.70;;;9.70;99.70;;;;;;5089567;28;20032;-77
2022/04/06 04:16:06;;;;;;;12.47;3.30;;;9.70;99.90;;;;;;5072703;28;20028;-78
2022/04/06 04:18:32;;;;;;;14.37;2.57;;;9.70;99.70;;;;;;5056048;28;20032;-77
2022/04/06 04:23:42;;;;;;;10.13;2.20;;;9.70;99.90;;;;;;5073190;28;20043;-78
2022/04/06 04:26:08;;;;;;;20.70;3.03;;;9.70;99.90;;;;;;5072336;28;20024;-77
2022/04/06 04:28:34;;;;;;;14.07;2.87;;;9.80;99.70;;;;;;5039476;28;20024;-78
2022/04/06 04:30:59;;;;;;;12.97;2.87;;;9.70;99.70;;;;;;5072324;28;20154;-77
2022/04/06 04:33:25;;;;;;;10.60;2.47;;;9.80;99.60;;;;;;5073668;28;20028;-77
2022/04/06 04:35:51;;;;;;;9.73;3.13;;;9.80;99.80;;;;;;5072300;28;20056;-77
2022/04/06 04:38:17;;;;;;;9.30;2.83;;;9.70;99.40;;;;;;5072216;28;20028;-77
2022/04/06 04:40:42;;;;;;;12.60;2.73;;;9.70;99.50;;;;;;5072225;28;20074;-77
2022/04/06 04:43:08;;;;;;;12.23;2.17;;;9.60;99.30;;;;;;5072209;28;20829;-76
2022/04/06 04:45:33;;;;;;;12.77;2.50;;;9.70;99.40;;;;;;5072774;28;20021;-76
2022/04/06 04:47:59;;;;;;;10.47;2.67;;;9.60;99.30;;;;;;5072129;28;20032;-76
2022/04/06 04:50:25;;;;;;;9.07;2.53;;;9.70;99.30;;;;;;5073597;28;20059;-77
2022/04/06 04:52:51;;;;;;;9.77;2.50;;;9.70;99.40;;;;;;5038984;28;20032;-76
2022/04/06 04:55:18;;;;;;;12.83;2.20;;;9.60;99.20;;;;;;5063856;28;20024;-77
2022/04/06 04:57:44;;;;;;;15.13;3.57;;;9.70;99.00;;;;;;5075365;28;20093;-77
2022/04/06 05:00:10;;;;;;;15.67;3.20;;;9.70;99.00;;;;;;5058667;28;20118;-77
2022/04/06 05:02:39;;;;;;;10.03;2.80;;;9.70;98.90;;;;;;5075201;28;20024;-77
2022/04/06 05:05:06;;;;;;;10.17;2.37;;;9.70;98.80;;;;;;5075942;28;20154;-77
2022/04/06 05:07:37;;;;;;;9.63;2.27;;;9.70;98.80;;;;;;5075738;28;20476;-76
2022/04/06 05:10:06;;;;;;;10.93;2.87;;;9.70;98.90;;;;;;5059137;28;20032;-78
2022/04/06 05:12:32;;;;;;;9.37;3.13;;;9.70;98.80;;;;;;5059249;28;20032;-77
2022/04/06 05:15:01;;;;;;;9.93;2.63;;;9.70;98.90;;;;;;5058479;28;20028;-79
2022/04/06 05:17:27;;;;;;;13.87;3.30;;;9.60;98.90;;;;;;5075514;28;20032;-78
2022/04/06 05:19:54;;;;;;;9.30;3.33;;;9.70;98.90;;;;;;5093421;28;20028;-77
2022/04/06 05:22:20;;;;;;;17.43;3.97;;;9.60;98.80;;;;;;5058531;28;20035;-77
2022/04/06 05:24:46;;;;;;;14.33;3.60;;;9.60;98.60;;;;;;5075174;28;20020;-77
2022/04/06 05:27:12;;;;;;;10.97;3.13;;;9.70;98.70;;;;;;5058577;28;20369;-76
2022/04/06 05:29:38;;;;;;;11.70;3.23;;;9.70;98.80;;;;;;5075217;28;20035;-78
2022/04/06 05:32:04;;;;;;;10.53;3.00;;;9.60;98.80;;;;;;5075050;28;20032;-82
2022/04/06 05:34:29;;;;;;;11.90;3.73;;;9.70;98.90;;;;;;5094418;28;20036;-77
2022/04/06 05:36:55;;;;;;;10.73;3.27;;;9.70;98.90;;;;;;5078784;28;20076;-77
2022/04/06 05:39:21;;;;;;;10.77;3.17;;;9.70;98.90;;;;;;5062205;28;20016;-77
2022/04/06 05:41:47;;;;;;;11.50;3.03;;;9.70;98.90;;;;;;5096952;28;20025;-80
2022/04/06 05:44:13;;;;;;;10.03;3.27;;;9.70;98.90;;;;;;5079243;28;20103;-78
2022/04/06 05:46:38;;;;;;;11.70;3.80;;;9.70;98.90;;;;;;5078979;28;20076;-80
2022/04/06 05:49:04;;;;;;;10.73;3.30;;;9.70;98.90;;;;;;5062272;28;20032;-79
2022/04/06 05:51:29;;;;;;;14.00;3.17;;;9.80;98.90;;;;;;5078781;28;20031;-80
2022/04/06 05:53:55;;;;;;;13.83;3.70;;;9.80;98.80;;;;;;5078775;28;20024;-80
2022/04/06 05:56:21;;;;;;;16.57;3.23;;;9.80;98.90;;;;;;5061965;28;20024;-78
2022/04/06 05:58:46;;;;;;;10.00;3.00;;;9.80;98.90;;;;;;5059557;28;20537;-82
2022/04/06 06:01:12;;;;;;;12.57;3.83;;;9.70;98.80;;;;;;5075040;28;20116;-78
2022/04/06 06:03:38;;;;;;;12.43;3.20;;;9.80;99.00;;;;;;5047734;28;20024;-81
2022/04/06 06:06:03;;;;;;;13.70;3.87;;;9.80;98.80;;;;;;5058286;28;20548;-78
2022/04/06 06:08:29;;;;;;;14.10;3.97;;;9.80;98.70;;;;;;5068311;28;20017;-82
2022/04/06 06:10:55;;;;;;;12.57;4.13;;;9.90;98.50;;;;;;5075179;28;20059;-80
2022/04/06 06:13:22;;;;;;;15.83;4.50;;;9.80;98.50;;;;;;5067390;28;20069;-77
2022/04/06 06:15:48;;;;;;;20.83;5.00;;;9.80;98.50;;;;;;5077762;28;20028;-83
2022/04/06 06:18:14;;;;;;;12.30;4.10;;;9.90;98.70;;;;;;5059523;28;20021;-86
2022/04/06 06:20:40;;;;;;;14.00;4.47;;;9.90;98.80;;;;;;5077131;28;20040;-79
2022/04/06 06:23:07;;;;;;;12.80;4.53;;;9.90;98.80;;;;;;5074784;28;20084;-78
2022/04/06 06:25:32;;;;;;;10.60;4.87;;;9.90;98.80;;;;;;5095747;28;20103;-79
2022/04/06 06:27:58;;;;;;;18.27;4.60;;;10.00;98.90;;;;;;5057947;28;20047;-83
2022/04/06 06:30:26;;;;;;;14.40;4.67;;;10.00;99.00;;;;;;5092556;28;20090;-82
2022/04/06 06:32:53;;;;;;;13.27;5.00;;;10.00;99.00;;;;;;5059925;28;20093;-83
2022/04/06 06:35:20;;;;;;;14.73;5.30;;;10.00;98.90;;;;;;5057385;28;20029;-83
2022/04/06 06:37:50;;;;;;;17.07;5.97;;;10.00;99.00;;;;;;5057118;28;20048;-84
2022/04/06 06:40:21;;;;;;;15.17;6.30;;;10.10;99.00;;;;;;5075515;28;20031;-80
2022/04/06 06:42:47;;;;;;;18.07;5.53;;;10.00;98.90;;;;;;5074487;28;20036;-83
2022/04/06 06:45:13;;;;;;;21.23;5.40;;;10.10;99.00;;;;;;5057680;28;20012;-81
2022/04/06 06:47:41;;;;;;;14.20;4.97;;;10.10;99.10;;;;;;5075273;28;20108;-81
2022/04/06 06:50:09;;;;;;;13.80;4.57;;;10.10;99.10;;;;;;5057559;28;20025;-76
2022/04/06 06:52:34;;;;;;;14.00;5.03;;;10.10;99.20;;;;;;5072308;28;20035;-75
2022/04/06 06:55:05;;;;;;;17.97;5.53;;;10.10;98.60;;;;;;5077625;28;20048;-78
2022/04/06 06:57:31;;;;;;;13.63;4.97;;;10.10;98.70;;;;;;5077438;28;20052;-76
2022/04/06 06:59:57;;;;;;;12.53;4.10;;;10.20;98.70;;;;;;5077639;28;20024;-77
2022/04/06 07:02:22;;;;;;;13.97;4.13;;;10.20;98.60;;;;;;5060732;28;20027;-75
2022/04/06 07:04:48;;;;;;;13.93;3.37;;;10.20;98.40;;;;;;5060618;28;20020;-77
2022/04/06 07:07:14;;;;;;;13.73;3.83;;;10.20;98.50;;;;;;5060626;28;20051;-76
2022/04/06 07:09:39;;;;;;;13.60;3.47;;;10.20;98.50;;;;;;5060546;28;20031;-78
2022/04/06 07:12:06;;;;;;;11.50;3.20;;;10.30;98.00;;;;;;5060534;28;20020;-76
2022/04/06 07:14:32;;;;;;;12.30;3.20;;;10.30;98.10;;;;;;5077472;28;20032;-77
2022/04/06 07:17:01;;;;;;;13.43;2.80;;;10.30;97.90;;;;;;5076954;28;20384;-75
2022/04/06 07:19:27;;;;;;;14.33;2.97;;;10.30;97.80;;;;;;5077710;28;20035;-80
2022/04/06 07:21:52;;;;;;;12.20;3.10;;;10.30;97.50;;;;;;5060143;28;20032;-75
2022/04/06 07:24:18;;;;;;;14.25;3.45;;;10.40;97.30;;;;;;5041072;28;20033;-77
2022/04/06 07:26:44;;;;;;;8.77;2.40;;;10.30;97.10;;;;;;5056842;28;20550;-77
2022/04/06 07:29:11;;;;;;;10.00;2.72;;;10.30;97.10;;;;;;5056613;28;20084;-76
2022/04/06 07:31:41;;;;;;;10.17;2.03;;;10.40;97.00;;;;;;5080586;28;20031;-75
2022/04/06 07:34:07;;;;;;;9.13;2.00;;;10.40;96.50;;;;;;5076713;28;20116;-79
2022/04/06 07:36:35;;;;;;;7.27;1.57;;;10.40;95.40;;;;;;5059992;28;20055;-80
2022/04/06 07:39:05;;;;;;;8.20;1.27;;;10.40;95.60;;;;;;5060372;28;20024;-77
2022/04/06 07:41:31;;;;;;;11.25;1.90;;;10.50;95.40;;;;;;5060088;28;20110;-77
2022/04/06 07:44:00;;;;;;;8.77;1.60;;;10.50;95.30;;;;;;5059897;28;20024;-79
2022/04/06 07:46:26;;;;;;;8.43;1.45;;;10.50;95.30;;;;;;5060009;28;20198;-76
2022/04/06 07:48:51;;;;;;;8.98;1.48;;;10.50;94.80;;;;;;5076361;28;20085;-75
2022/04/06 07:51:17;;;;;;;8.40;1.55;;;10.50;94.80;;;;;;5059778;28;20060;-75
2022/04/06 07:53:43;;;;;;;7.18;1.50;;;10.60;94.90;;;;;;5076379;28;20020;-76
2022/04/06 07:56:09;;;;;;;7.78;1.73;;;10.60;94.60;;;;;;5043242;28;20024;-78
2022/04/06 07:58:35;;;;;;;7.40;1.85;;;10.60;94.80;;;;;;5041866;28;20052;-76
2022/04/06 08:01:02;;;;;;;11.88;1.45;;;10.60;94.30;;;;;;5059701;28;20030;-76
2022/04/06 08:03:29;;;;;;;7.07;0.98;;;10.70;94.00;;;;;;5076515;28;20066;-77
2022/04/06 08:05:56;;;;;;;11.98;2.00;;;10.70;93.90;;;;;;5076342;28;20024;-78
2022/04/06 08:08:21;;;;;;;8.07;1.67;;;10.70;93.80;;;;;;5076438;28;20039;-80
2022/04/06 08:10:47;;;;;;;5.75;1.23;;;10.80;93.60;;;;;;5094310;28;20032;-82
2022/04/06 08:13:13;;;;;;;8.10;1.58;;;10.80;93.90;;;;;;5059568;28;20028;-80
2022/04/06 08:15:38;;;;;;;11.25;1.20;;;10.80;93.60;;;;;;5076093;28;20028;-86
2022/04/06 08:18:06;;;;;;;6.63;1.55;;;10.90;93.30;;;;;;5059538;28;20024;-80
2022/04/06 08:20:31;;;;;;;10.57;1.65;;;10.90;93.00;;;;;;5094539;28;20024;-80
2022/04/06 08:22:57;;;;;;;9.35;1.20;;;10.90;92.50;;;;;;5075836;28;20107;-77
2022/04/06 08:25:23;;;;;;;7.43;1.73;;;10.90;92.60;;;;;;5075759;28;20044;-80
2022/04/06 08:27:48;;;;;;;6.03;1.25;;;11.00;92.30;;;;;;5058959;28;20077;-80
2022/04/06 08:30:16;;;;;;;13.00;1.60;;;11.00;92.20;;;;;;5059277;28;20046;-80
2022/04/06 08:32:42;;;;;;;7.25;1.75;;;11.00;92.10;;;;;;5054375;28;20097;-82
2022/04/06 08:35:08;;;;;;;10.00;1.40;;;11.00;92.30;;;;;;5071374;28;20545;-78
2022/04/06 08:37:34;;;;;;;6.68;1.02;;;11.00;92.20;;;;;;5055878;28;20028;-80
2022/04/06 08:40:00;;;;;;;8.00;1.67;;;10.90;92.20;;;;;;5073667;28;20035;-83
2022/04/06 08:42:27;;;;;;;8.60;1.75;;;10.90;92.50;;;;;;5057328;28;20028;-83
2022/04/06 08:44:54;;;;;;;9.45;1.88;;;10.90;92.50;;;;;;5053648;28;20021;-78
2022/04/06 08:47:20;;;;;;;10.30;1.90;;;11.00;92.30;;;;;;5055787;28;20380;-79
2022/04/06 08:49:46;;;;;;;7.35;2.05;;;11.00;92.30;;;;;;5073182;28;20029;-83
2022/04/06 08:52:12;;;;;;;13.60;2.03;;;11.00;92.60;;;;;;5053750;28;20123;-83
2022/04/06 08:54:38;;;;;;;5.47;1.42;;;11.00;92.50;;;;;;5058892;28;20035;-79
2022/04/06 08:57:05;;;;;;;9.48;2.85;;;11.00;92.70;;;;;;5093269;28;20050;-81
2022/04/06 08:59:32;;;;;;;8.48;1.90;;;11.00;93.10;;;;;;5058996;28;20024;-84
2022/04/06 09:01:58;;;;;;;5.75;1.90;;;11.00;93.40;;;;;;5075847;28;20504;-80
2022/04/06 09:04:24;;;;;;;9.10;2.53;;;10.90;93.70;;;;;;5075496;28;20020;-77
2022/04/06 09:06:51;;;;;;;10.07;2.40;;;10.90;94.10;;;;;;5074821;28;20020;-84
2022/04/06 09:09:21;;;;;;;11.82;2.85;;;10.90;94.40;;;;;;5075003;28;20496;-80
2022/04/06 09:11:48;;;;;;;11.93;3.40;;;10.90;94.60;;;;;;5075833;28;20058;-79
2022/04/06 09:14:13;;;;;;;11.63;2.67;;;10.90;94.90;;;;;;5093397;28;20031;-83
2022/04/06 09:16:39;;;;;;;10.77;2.75;;;10.80;95.30;;;;;;5075465;28;20032;-76
2022/04/06 09:19:14;;;;;;;9.25;2.97;;;10.90;95.50;;;;;;5075520;28;20032;-86
2022/04/06 09:21:41;;;;;;;12.38;3.15;;;10.90;95.70;;;;;;5075222;28;20510;-78
2022/04/06 09:24:17;;;;;;;11.88;3.80;;;10.80;96.10;;;;;;5093585;28;20020;-76
2022/04/06 09:26:43;;;;;;;11.95;3.60;;;10.80;96.60;;;;;;5093365;28;20042;-86
2022/04/06 09:29:12;;;;;;;12.23;4.30;;;10.60;96.90;;;;;;5075233;28;20389;-79
2022/04/06 09:31:40;;;;;;;15.20;3.33;;;10.60;97.10;;;;;;5075579;28;20036;-78
2022/04/06 09:34:09;;;;;;;10.27;3.88;;;10.60;97.50;;;;;;5073665;28;20035;-81
2022/04/06 09:36:38;;;;;;;11.40;5.10;;;10.50;97.70;;;;;;5075620;28;20054;-86
2022/04/06 09:39:05;;;;;;;13.75;4.50;;;10.40;98.00;;;;;;5058852;28;20372;-78
2022/04/06 09:41:31;;;;;;;12.03;4.97;;;10.40;98.50;;;;;;5074931;28;20027;-80
2022/04/06 09:47:38;;;;;;;15.68;4.65;;;10.40;98.70;;;;;;5075149;28;20028;-78
2022/04/06 09:47:47;;;;;;;11.30;4.50;;;10.30;99.00;;;;;;5092870;28;20377;-78
2022/04/06 09:50:19;;;;;;;13.97;5.70;;;10.30;99.60;;;;;;5076534;28;20396;-77
2022/04/06 09:52:46;;;;;;;9.73;4.50;;;10.40;99.90;;;;;;5074917;28;20473;-79
2022/04/06 09:55:14;;;;;;;10.00;4.80;;;10.30;99.90;;;;;;5075111;28;20026;-82
2022/04/06 09:57:49;;;;;;;9.97;5.00;;;10.30;99.90;;;;;;5073519;28;20051;-79
2022/04/06 10:00:18;;;;;;;9.37;4.47;;;10.30;99.90;;;;;;5074782;28;20042;-78
2022/04/06 10:02:55;;;;;;;18.80;5.37;;;10.30;99.90;;;;;;5092837;28;20480;-80
2022/04/06 10:05:23;;;;;;;13.40;5.10;;;10.30;99.90;;;;;;5074520;28;20024;-81
2022/04/06 10:07:51;;;;;;;11.23;5.87;;;10.30;99.90;;;;;;5093150;28;20035;-84
2022/04/06 10:10:17;;;;;;;7.67;5.10;;;10.30;99.90;;;;;;5074453;28;20020;-76
2022/04/06 10:12:44;;;;;;;16.13;5.93;;;10.30;99.90;;;;;;5074974;28;20043;-78
2022/04/06 10:15:10;;;;;;;12.57;5.83;;;10.20;99.90;;;;;;5074778;28;20468;-79
2022/04/06 10:17:36;;;;;;;15.30;5.87;;;10.10;99.90;;;;;;5074367;28;20028;-76
2022/04/06 10:20:40;;;;;;;12.83;6.47;;;10.10;99.90;;;;;;5074641;28;20029;-81
2022/04/06 10:23:06;;;;;;;13.38;5.82;;;10.10;99.90;;;;;;5077730;28;20020;-81
2022/04/06 10:25:47;;;;;;;13.37;6.47;;;10.00;99.90;;;;;;5095900;28;20487;-78
2022/04/06 10:28:14;;;;;;;13.33;6.57;;;10.00;99.90;;;;;;5096061;28;20100;-77
2022/04/06 10:30:40;;;;;;;19.33;6.40;;;10.00;99.90;;;;;;5077926;28;20032;-77
2022/04/06 10:33:20;;;;;;;15.37;6.23;;;10.00;99.90;;;;;;5061212;28;20032;-79
2022/04/06 10:35:46;;;;;;;14.40;6.83;;;10.00;99.90;;;;;;5077847;28;20085;-82
2022/04/06 10:38:14;;;;;;;15.07;6.33;;;9.90;99.90;;;;;;5061197;28;20031;-80
2022/04/06 10:40:46;;;;;;;14.50;7.43;;;10.00;99.90;;;;;;5068574;28;20028;-81
2022/04/06 10:43:36;;;;;;;19.40;6.63;;;10.00;99.90;;;;;;5093266;28;20027;-81
2022/04/06 10:46:17;;;;;;;14.40;7.27;;;10.00;99.90;;;;;;5095060;28;20027;-81
2022/04/06 10:49:09;;;;;;;14.63;6.53;;;10.00;99.90;;;;;;5095772;28;20024;-80
2022/04/06 10:51:46;;;;;;;13.77;5.97;;;10.00;99.90;;;;;;5095984;28;20116;-79
2022/04/06 10:54:12;;;;;;;12.33;6.97;;;10.00;99.90;;;;;;5095866;28;20542;-79
2022/04/06 10:56:50;;;;;;;14.90;6.90;;;9.90;99.90;;;;;;5077576;28;20032;-80
2022/04/06 10:59:23;;;;;;;14.80;7.70;;;10.00;99.90;;;;;;5077386;28;20063;-78
2022/04/06 11:02:09;;;;;;;13.73;6.78;;;10.00;99.90;;;;;;5095782;28;20028;-78
2022/04/06 11:04:41;;;;;;;18.27;8.77;;;10.00;99.90;;;;;;5077484;28;20035;-80
2022/04/06 11:07:08;;;;;;;14.27;7.77;;;10.00;99.90;;;;;;5095527;28;20387;-79
2022/04/06 11:12:34;;;;;;;16.27;7.03;;;10.00;99.90;;;;;;5095770;28;20091;-82
2022/04/06 11:14:59;;;;;;;12.80;7.67;;;10.00;99.90;;;;;;5060419;28;20024;-80
2022/04/06 11:17:44;;;;;;;17.47;7.23;;;10.10;99.90;;;;;;5077233;28;20038;-80
2022/04/06 11:20:30;;;;;;;14.43;7.30;;;10.10;99.90;;;;;;5095972;28;20016;-80
2022/04/06 11:22:57;;;;;;;13.77;6.90;;;10.10;99.90;;;;;;5060547;28;20047;-80
2022/04/06 11:25:29;;;;;;;14.37;7.27;;;10.20;99.90;;;;;;5077334;28;20016;-80
2022/04/06 11:28:15;;;;;;;13.77;6.80;;;10.20;99.90;;;;;;5077017;28;20024;-80
2022/04/06 11:30:44;;;;;;;15.77;7.07;;;10.30;99.90;;;;;;5094575;28;20063;-79
2022/04/06 11:33:10;;;;;;;12.60;6.57;;;10.40;99.90;;;;;;5060169;28;20114;-83
2022/04/06 11:35:36;;;;;;;15.27;6.97;;;10.50;99.90;;;;;;5060217;28;20062;-78
2022/04/06 11:38:08;;;;;;;15.23;6.77;;;10.50;99.90;;;;;;5076673;28;20559;-75
2022/04/06 11:40:37;;;;;;;11.40;5.78;;;10.50;99.90;;;;;;5094869;28;20031;-77
2022/04/06 11:43:06;;;;;;;10.80;5.90;;;10.60;99.90;;;;;;5077540;28;20028;-79
2022/04/06 11:45:33;;;;;;;11.90;6.03;;;10.60;99.90;;;;;;5076325;28;20557;-81
2022/04/06 11:48:01;;;;;;;12.33;5.97;;;10.70;99.90;;;;;;5076628;28;20044;-81
2022/04/06 11:50:32;;;;;;;13.80;5.72;;;10.70;99.90;;;;;;5060251;28;20030;-83
2022/04/06 11:53:03;;;;;;;11.95;4.97;;;10.70;99.90;;;;;;5076541;28;20092;-79
2022/04/06 11:55:48;;;;;;;6.07;4.65;;;10.70;99.90;;;;;;5076512;28;20392;-80
2022/04/06 11:58:36;;;;;;;9.68;4.88;;;10.70;99.90;;;;;;5056624;28;20405;-83
2022/04/06 12:01:02;;;;;;;12.25;5.07;;;10.80;99.90;;;;;;5035146;28;20138;-81
2022/04/06 12:03:32;;;;;;;11.68;4.47;;;10.70;99.90;;;;;;5042719;28;20021;-83
2022/04/06 12:05:58;;;;;;;15.30;5.05;;;10.70;99.90;;;;;;5054296;28;20044;-81
2022/04/06 12:08:24;;;;;;;14.50;5.80;;;10.70;99.90;;;;;;5054319;28;20500;-85
2022/04/06 12:10:56;;;;;;;12.40;5.07;;;10.70;99.90;;;;;;5053247;28;20033;-79
2022/04/06 12:13:24;;;;;;;16.00;5.07;;;10.70;99.90;;;;;;5037002;28;20037;-84
2022/04/06 12:15:51;;;;;;;9.55;4.35;;;10.70;99.90;;;;;;5054050;28;20017;-77
2022/04/06 12:18:18;;;;;;;9.95;4.80;;;10.70;99.90;;;;;;5036022;28;20420;-79
2022/04/06 12:20:44;;;;;;;10.93;5.07;;;10.60;99.90;;;;;;5053195;28;20410;-77
2022/04/06 12:23:10;;;;;;;8.55;4.68;;;10.80;99.90;;;;;;5054422;28;20031;-76
2022/04/06 12:25:37;;;;;;;8.18;4.15;;;10.80;99.90;;;;;;5052681;28;20099;-78
2022/04/06 12:28:08;;;;;;;10.82;4.40;;;10.80;99.90;;;;;;5052997;28;20029;-79
2022/04/06 12:30:34;;;;;;;9.63;4.25;;;10.90;99.90;;;;;;5054010;28;20079;-79
2022/04/06 12:33:00;;;;;;;10.45;3.97;;;11.00;99.90;;;;;;5052426;28;20025;-79
2022/04/06 12:35:26;;;;;;;9.25;3.92;;;11.00;99.90;;;;;;5052366;28;20033;-79
2022/04/06 12:37:52;;;;;;;15.15;4.72;;;11.10;99.90;;;;;;5052242;28;20055;-75
2022/04/06 12:40:24;;;;;;;11.45;4.50;;;11.10;99.90;;;;;;5052851;28;20033;-77
2022/04/06 12:42:50;;;;;;;8.23;4.28;;;11.10;99.90;;;;;;5052217;28;20025;-76
2022/04/06 12:45:18;;;;;;;10.65;3.90;;;11.10;99.90;;;;;;5035313;28;20436;-78
2022/04/06 12:47:45;;;;;;;6.50;3.38;;;11.20;99.90;;;;;;5036219;28;20477;-79
2022/04/06 12:50:18;;;;;;;7.97;3.45;;;11.20;99.90;;;;;;5032333;28;20393;-77